Bookmark and Share
Track history (hours):
 

Rotterdam Express

Last reported at 2014-Apr-24 18:33 UTC. Time now 2014-Apr-24 19:27 UTC.
Position N 51°17' E 004°15'.

Length 294 m; beam 32.2 m; draft 13.6 m.

Type: Ship. MMSI: 211335760.

NotesDate/timePositionNaut miles runAvg speedWind from/ knotsBaromVisibWave heightAir tempDewpointWater temp
2014-Apr-24 18:33N 51°17' E 004°15'0 0.0
2014-Apr-24 17:30N 51°17' E 004°15'0 0.0
2014-Apr-24 16:29N 51°17' E 004°15'0 0.0
2014-Apr-24 15:34N 51°17' E 004°15'0 0.0
2014-Apr-24 14:33N 51°17' E 004°15'0 0.0
2014-Apr-24 13:30N 51°17' E 004°15'0 0.0
2014-Apr-24 12:26N 51°17' E 004°15'0 0.0
2014-Apr-24 11:32N 51°17' E 004°15'0 0.0
2014-Apr-24 10:28N 51°17' E 004°15'0 0.0
2014-Apr-24 09:31N 51°17' E 004°15'0 0.0
2014-Apr-24 08:33N 51°17' E 004°15'0 0.0
2014-Apr-24 07:31N 51°17' E 004°15'0 0.0
2014-Apr-24 06:34N 51°17' E 004°15'0 0.0
2014-Apr-24 05:30N 51°17' E 004°15'0 0.2
2014-Apr-24 04:34N 51°17' E 004°16'3 2.7
2014-Apr-24 03:34N 51°20' E 004°17'0 0.0
2014-Apr-24 02:33N 51°20' E 004°17'0 0.0
2014-Apr-24 01:33N 51°20' E 004°17'0 0.0
2014-Apr-24 00:33N 51°20' E 004°17'0 0.0
2014-Apr-23 23:33N 51°20' E 004°17'0 0.0
2014-Apr-23 22:33N 51°20' E 004°17'0 0.0
2014-Apr-23 21:34N 51°20' E 004°17'0 0.0
2014-Apr-23 20:33N 51°20' E 004°17'0 0.0
2014-Apr-23 19:34N 51°20' E 004°17'0 0.0
2014-Apr-23 18:33N 51°20' E 004°17'0 0.0
2014-Apr-23 17:33N 51°20' E 004°17'0 0.0
2014-Apr-23 16:33N 51°20' E 004°17'0 0.0
2014-Apr-23 15:33N 51°20' E 004°17'0 0.0
2014-Apr-23 14:33N 51°20' E 004°17'0 0.0
2014-Apr-23 13:33N 51°20' E 004°17'0 0.0
2014-Apr-23 12:33N 51°20' E 004°17'0 0.0
2014-Apr-23 11:33N 51°20' E 004°17'0 0.0
2014-Apr-23 10:34N 51°20' E 004°17'0 0.0
2014-Apr-23 09:33N 51°20' E 004°17'0 0.0
2014-Apr-23 08:34N 51°20' E 004°17'0 0.0
2014-Apr-23 07:34N 51°20' E 004°17'0 0.0
2014-Apr-23 06:34N 51°20' E 004°17'0 0.0
2014-Apr-23 05:34N 51°20' E 004°17'0 0.0
2014-Apr-23 04:34N 51°20' E 004°17'0 0.2
2014-Apr-23 03:34N 51°20' E 004°16'8 8.1
2014-Apr-23 02:34N 51°22' E 004°04'8 7.9
2014-Apr-23 01:33N 51°21' E 003°51'1111.2
2014-Apr-23 00:33N 51°26' E 003°35'1313.3
2014-Apr-22 23:33N 51°24' E 003°14'1515.0
2014-Apr-22 22:33N 51°22' E 002°51'1111.0
2014-Apr-22 21:34N 51°22' E 002°33'1515.1
2014-Apr-22 20:33N 51°15' E 002°11'1717.2
2014-Apr-22 19:34N 51°07' E 001°48'1918.6
2014-Apr-22 18:34N 50°52' E 001°28'1919.0
2014-Apr-22 17:33N 50°36' E 001°13'1818.2
2014-Apr-22 16:33N 50°29' E 000°47'4020.1
2014-Apr-22 14:33N 50°20' W 000°15'2020.3
2014-Apr-22 13:33N 50°27' W 000°45'1616.0
2014-Apr-22 12:34N 50°41' W 000°57'1515.1
2014-Apr-22 11:34N 50°47' W 001°19'8 7.9
2014-Apr-22 10:34N 50°54' W 001°25'2 2.2
2014-Apr-22 09:34N 50°55' W 001°28'0 0.0
2014-Apr-22 08:32N 50°55' W 001°28'0 0.0
2014-Apr-22 07:31N 50°55' W 001°28'0 0.0
2014-Apr-22 06:31N 50°55' W 001°28'0 0.0
2014-Apr-22 05:33N 50°55' W 001°28'0 0.0
2014-Apr-22 04:33N 50°55' W 001°28'0 0.0
2014-Apr-22 03:32N 50°55' W 001°28'0 0.0
2014-Apr-22 02:32N 50°55' W 001°28'0 0.0
2014-Apr-22 01:31N 50°55' W 001°28'0 0.0
2014-Apr-22 00:31N 50°55' W 001°28'1 1.1
2014-Apr-21 23:33N 50°54' W 001°26'8 7.5
2014-Apr-21 22:33N 50°49' W 001°18'1111.3
2014-Apr-21 21:34N 50°44' W 001°02'1010.5
2014-Apr-21 20:33N 50°33' W 000°60'1414.1
2014-Apr-21 19:33N 50°20' W 001°09'1616.0
2014-Apr-21 18:33N 50°10' W 001°27'1515.6
2014-Apr-21 17:34N 50°03' W 001°49'28316.1
2014-Apr-21 00:00N 49°36' W 009°06'20316.9 350 / 231000.0 5.4 2.011.5 9.112.0
2014-Apr-20 12:00N 49°24' W 014°18'14616.2 080 / 111007.0 5.4 0.511.5 6.813.0
2014-Apr-20 03:00N 49°06' W 018°00'84516.6 030 / 161006.0 2.2 1.011.5 9.613.0
2014-Apr-18 00:00N 45°12' W 037°54'18815.7 340 / 131020.010.8 0.513.010.914.0
2014-Apr-17 12:00N 43°54' W 041°54'23316.6 350 / 131025.0 0.3 1.010.510.314.0
2014-Apr-16 22:00N 42°06' W 046°36'20216.8 290 / 131028.0 0.0 9.5 8.6 9.0
2014-Apr-16 10:00N 41°06' W 050°54'6817.0 220 / 151028.010.8 0.517.011.919.0
2014-Apr-16 06:00N 41°00' W 052°24'20116.8 230 / 131027.5 5.4 1.016.012.717.0
2014-Apr-15 18:00N 40°36' W 056°48'9616.0 210 / 161026.0 5.4 1.020.015.220.0
2014-Apr-15 12:00N 40°30' W 058°54'5116.9 210 / 171024.010.8 1.020.015.321.0
2014-Apr-15 09:00N 40°24' W 060°00'14716.3 190 / 181023.010.8 0.517.015.419.0
2014-Apr-15 00:00N 40°12' W 063°12'   210 / 151021.010.8 1.018.516.217.0

Dump ship's entire track history

sailing weather and tide predictions

Rotterdam Express — DMRX — position and weather